KMLI/MLI METAR and TAF weather

Enter ICAO airport designator
Station Type Date Time Source
KMLI METAR 2019/08/22 19:52 UTC NOAA

KMLI 221952Z 04005KT 10SM CLR 27/13 A3001 RMK AO2 SLP157 T02720128


Station Type Date Time Source
KMLI Decoded METAR 2019/08/22 19:52 UTC NOAA

Station name not available
Aug 22, 2019 - 03:52 PM EDT / 2019.08.22 1952 UTC
Wind: from the NE (040 degrees) at 6 MPH (5 KT):0
Visibility: 10 mile(s):0
Sky conditions: clear
Temperature: 81.0 F (27.2 C)
Dew Point: 55.0 F (12.8 C)
Relative Humidity: 40%
Pressure (altimeter): 30.01 in. Hg (1016 hPa)
ob: KMLI 221952Z 04005KT 10SM CLR 27/13 A3001 RMK AO2 SLP157 T02720128
cycle: 20

Station Type Date Time Source
KMLI TAF 2019/08/22 18:22 UTC NOAA

TAF KMLI 221720Z 2218/2318 04006KT P6SM FEW050 FEW250
FM231500 09008KT P6SM SKC

Example: see airport list